Last 48 Hours

Top of 15

15 Minute Data | America/Los_Angeles
as of 12/1/22 10:23 PM PST
Date & Time Temp (°F) RH (%) Dew Pt (°F) Wet Bulb (°F) Wind Dir (°) Wind Spd (mph) Wind Gust (mph) Wind Gst Dir (°) Daily Min Temp (°F) Daily Max Temp (°F) Daily Max Wind (mph)
12/1/22 - 2215 21.2 90 18.8 20.4 N | 0 0.0 0.0 N | 0 18.8 25.8 0.0
12/1/22 - 2200 22.0 89 19.3 21.1 N | 0 0.0 0.0 N | 0 18.8 25.8 0.0
12/1/22 - 2145 22.1 93 20.3 21.4 N | 0 0.0 0.0 N | 0 18.8 25.8 0.0
12/1/22 - 2130 22.3 92 20.4 21.6 N | 0 0.0 0.0 N | 0 18.8 25.8 0.0
12/1/22 - 2115 22.4 91 20.1 21.6 N | 0 0.0 0.0 N | 0 18.8 25.8 0.0
12/1/22 - 2100 22.3 91 20.1 21.5 N | 0 0.0 0.0 N | 0 18.8 25.8 0.0
12/1/22 - 2045 22.6 90 20.2 21.7 N | 0 0.0 0.0 N | 0 18.8 25.8 0.0
12/1/22 - 2030 22.9 90 20.4 22.0 N | 0 0.0 0.0 N | 0 18.8 25.8 0.0
12/1/22 - 2015 23.0 90 20.6 22.2 N | 0 0.0 0.0 N | 0 18.8 25.8 0.0
12/1/22 - 2000 22.8 90 20.4 22.0 N | 0 0.0 0.0 N | 0 18.8 25.8 0.0
12/1/22 - 1945 21.9 91 19.7 21.2 N | 0 0.0 0.0 N | 0 18.8 25.8 0.0
12/1/22 - 1930 21.7 91 19.4 20.9 N | 0 0.0 0.0 N | 0 18.8 25.8 0.0
12/1/22 - 1915 21.7 90 19.3 20.9 N | 0 0.0 0.0 N | 0 18.8 25.8 0.0
12/1/22 - 1900 21.6 90 19.1 20.7 N | 0 0.0 0.0 N | 0 18.8 25.8 0.0
12/1/22 - 1845 21.8 90 19.4 21.0 N | 0 0.0 0.0 N | 0 18.8 25.8 0.0
12/1/22 - 1830 22.0 90 19.4 21.1 N | 0 0.0 0.0 N | 0 18.8 25.8 0.0
12/1/22 - 1815 21.9 89 19.3 21.0 N | 0 0.0 0.0 N | 0 18.8 25.8 0.0
12/1/22 - 1800 21.7 90 19.3 20.9 N | 0 0.0 0.0 N | 0 18.8 25.8 0.0
12/1/22 - 1745 21.8 89 19.0 20.9 N | 0 0.0 0.0 N | 0 18.8 25.8 0.0
12/1/22 - 1730 22.0 88 18.9 21.0 N | 0 0.0 0.0 N | 0 18.8 25.8 0.0
12/1/22 - 1715 21.9 89 19.2 21.0 N | 0 0.0 0.0 N | 0 18.8 25.8 0.0
12/1/22 - 1700 21.9 90 19.3 21.0 N | 0 0.0 0.0 N | 0 18.8 25.8 0.0
12/1/22 - 1645 22.4 89 19.6 21.5 N | 0 0.0 0.0 N | 0 18.8 25.8 0.0
12/1/22 - 1630 22.4 88 19.4 21.4 N | 0 0.0 0.0 N | 0 18.8 25.8 0.0
12/1/22 - 1615 22.2 88 19.3 21.3 N | 0 0.0 0.0 N | 0 18.8 25.8 0.0
12/1/22 - 1600 22.3 89 19.6 21.3 N | 0 0.0 0.0 N | 0 18.8 25.8 0.0
12/1/22 - 1545 22.2 91 19.9 21.4 N | 0 0.0 0.0 N | 0 18.8 25.8 0.0
12/1/22 - 1530 22.8 87 19.5 21.7 N | 0 0.0 0.0 N | 0 18.8 25.8 0.0
12/1/22 - 1515 22.8 89 20.0 21.8 N | 0 0.0 0.0 N | 0 18.8 25.8 0.0
12/1/22 - 1500 22.4 90 19.9 21.5 N | 0 0.0 0.0 N | 0 18.8 25.8 0.0
12/1/22 - 1445 22.8 89 19.9 21.8 N | 0 0.0 0.0 N | 0 18.8 25.8 0.0
12/1/22 - 1430 22.9 87 19.6 21.8 N | 0 0.0 0.0 N | 0 18.8 25.8 0.0
12/1/22 - 1415 22.3 89 19.5 21.4 N | 0 0.0 0.0 N | 0 18.8 25.8 0.0
12/1/22 - 1400 22.2 88 19.0 21.2 N | 0 0.0 0.0 N | 0 18.8 25.8 0.0
12/1/22 - 1345 22.9 85 19.1 21.7 N | 0 0.0 0.0 N | 0 18.8 25.8 0.0
12/1/22 - 1330 23.2 85 19.3 21.9 N | 0 0.0 0.0 N | 0 18.8 25.8 0.0
12/1/22 - 1315 23.1 84 19.0 21.8 N | 0 0.0 0.0 N | 0 18.8 25.8 0.0
12/1/22 - 1300 23.2 84 19.2 21.9 N | 0 0.0 0.0 N | 0 18.8 25.8 0.0
12/1/22 - 1245 23.3 83 19.0 21.9 N | 0 0.0 0.0 N | 0 18.8 25.8 0.0
12/1/22 - 1230 23.3 84 19.1 21.9 N | 0 0.0 0.0 N | 0 18.8 25.8 0.0
12/1/22 - 1215 23.5 83 19.0 22.0 N | 0 0.0 0.0 N | 0 18.8 25.8 0.0
12/1/22 - 1200 23.5 83 19.1 22.1 N | 0 0.0 0.0 N | 0 18.8 25.8 0.0
12/1/22 - 1145 23.6 81 18.6 22.0 N | 0 0.0 0.0 N | 0 18.8 25.8 0.0
12/1/22 - 1130 23.6 82 18.9 22.0 N | 0 0.0 0.0 N | 0 18.8 25.8 0.0
12/1/22 - 1115 23.4 84 19.2 22.0 N | 0 0.0 0.0 N | 0 18.8 25.8 0.0
12/1/22 - 1100 23.3 84 19.2 22.0 N | 0 0.0 0.0 N | 0 18.8 25.8 0.0
12/1/22 - 1045 23.0 84 18.9 21.6 N | 0 0.0 0.0 N | 0 18.8 25.8 0.0
12/1/22 - 1030 22.4 87 19.0 21.3 N | 0 0.0 0.0 N | 0 18.8 25.8 0.0
12/1/22 - 1015 22.3 84 18.1 21.0 N | 0 0.0 0.0 N | 0 18.8 25.8 0.0
12/1/22 - 1000 22.0 84 18.0 20.8 N | 0 0.0 0.0 N | 0 18.8 25.8 0.0
12/1/22 - 0945 22.1 85 18.2 20.8 N | 0 0.0 0.0 N | 0 18.8 25.8 0.0
12/1/22 - 0930 22.2 86 18.6 21.1 N | 0 0.0 0.0 N | 0 18.8 25.8 0.0
12/1/22 - 0915 22.5 86 18.8 21.3 N | 0 0.0 0.0 N | 0 18.8 25.8 0.0
12/1/22 - 0900 23.3 84 19.1 21.9 N | 0 0.0 0.0 N | 0 18.8 25.8 0.0
12/1/22 - 0845 23.4 83 18.9 21.9 N | 0 0.0 0.0 N | 0 18.8 25.8 0.0
12/1/22 - 0830 22.5 83 18.1 21.1 N | 0 0.0 0.0 N | 0 18.8 25.8 0.0
12/1/22 - 0815 21.5 85 17.7 20.3 N | 0 0.0 0.0 N | 0 18.8 25.8 0.0
12/1/22 - 0800 21.2 86 17.6 20.1 N | 0 0.0 0.0 N | 0 18.8 25.8 0.0
12/1/22 - 0745 21.0 87 17.8 20.0 N | 0 0.0 0.0 N | 0 18.8 25.8 0.0
12/1/22 - 0730 20.8 89 18.0 19.9 N | 0 0.0 0.0 N | 0 18.8 25.8 0.0
12/1/22 - 0715 20.3 92 18.5 19.7 N | 0 0.0 0.0 N | 0 18.8 25.8 0.0
12/1/22 - 0700 20.6 90 18.1 19.8 N | 0 0.0 0.0 N | 0 18.8 25.8 0.0
12/1/22 - 0645 20.7 88 17.6 19.7 N | 0 0.0 0.0 N | 0 18.8 25.8 0.0
12/1/22 - 0630 20.6 88 17.6 19.7 N | 0 0.0 0.0 N | 0 18.8 25.8 0.0
12/1/22 - 0615 20.3 90 17.9 19.5 N | 0 0.0 0.0 N | 0 18.8 25.8 0.0
12/1/22 - 0600 19.4 94 18.0 18.9 N | 0 0.0 0.0 N | 0 18.8 25.8 0.0
12/1/22 - 0545 19.6 87 16.3 18.6 N | 0 0.0 0.0 N | 0 18.8 25.8 0.0
12/1/22 - 0530 21.2 76 14.7 19.4 N | 0 0.0 0.0 N | 0 19.7 25.8 0.0
12/1/22 - 0515 22.5 68 13.6 20.0 N | 0 0.0 0.0 N | 0 22.0 25.8 0.0
12/1/22 - 0500 22.9 65 13.0 20.1 N | 0 0.0 0.0 N | 0 22.4 25.8 0.0
12/1/22 - 0445 23.5 61 12.0 20.4 N | 0 0.0 0.0 N | 0 23.0 25.8 0.0
12/1/22 - 0430 24.0 57 11.2 20.6 N | 0 0.0 0.0 N | 0 23.5 25.8 0.0
12/1/22 - 0415 24.1 56 10.6 20.5 N | 0 0.0 0.0 N | 0 23.5 25.8 0.0
12/1/22 - 0400 24.3 54 10.2 20.6 N | 0 0.0 0.0 N | 0 23.5 25.8 0.0
12/1/22 - 0345 24.5 54 10.2 20.7 N | 0 0.0 0.0 N | 0 23.5 25.8 0.0
12/1/22 - 0330 24.5 55 10.6 20.8 N | 0 0.0 0.0 N | 0 23.5 25.8 0.0
12/1/22 - 0315 24.4 56 11.1 20.8 N | 0 0.0 0.0 N | 0 23.5 25.8 0.0
12/1/22 - 0300 24.2 58 11.4 20.7 N | 0 0.0 0.0 N | 0 23.5 25.8 0.0
12/1/22 - 0245 24.1 58 11.5 20.7 N | 0 0.0 0.0 N | 0 23.5 25.8 0.0
12/1/22 - 0230 23.9 59 11.7 20.6 N | 0 0.0 0.0 N | 0 23.5 25.8 0.0
12/1/22 - 0215 23.7 58 11.2 20.4 N | 0 0.0 0.0 N | 0 23.5 25.8 0.0
12/1/22 - 0200 23.8 57 10.8 20.4 N | 0 0.0 0.0 N | 0 23.5 25.8 0.0
12/1/22 - 0145 23.6 58 11.0 20.3 N | 0 0.0 0.0 N | 0 23.5 25.8 0.0
12/1/22 - 0130 24.1 57 10.9 20.6 N | 0 0.0 0.0 N | 0 23.7 25.8 0.0
12/1/22 - 0115 24.8 56 11.2 21.1 N | 0 0.0 0.0 N | 0 24.1 25.8 0.0
12/1/22 - 0100 24.6 58 12.0 21.1 N | 0 0.0 0.0 N | 0 24.2 25.8 0.0
12/1/22 - 0045 24.8 58 12.0 21.3 N | 0 0.0 0.0 N | 0 24.3 25.8 0.0
12/1/22 - 0030 25.2 56 11.7 21.5 N | 0 0.0 0.0 N | 0 24.8 25.8 0.0
12/1/22 - 0015 25.5 55 11.6 21.7 N | 0 0.0 0.0 N | 0 25.2 25.7 0.0
12/1/22 - 0000 25.3 57 12.2 21.7 N | 0 0.0 0.0 N | 0 22.7 32.9 0.0
11/30/22 - 2345 24.8 60 13.0 21.5 N | 0 0.0 0.0 N | 0 22.7 32.9 0.0
11/30/22 - 2330 24.0 66 14.2 21.2 N | 0 0.0 0.0 N | 0 22.7 32.9 0.0
11/30/22 - 2315 23.5 70 15.1 21.0 N | 0 0.0 0.0 N | 0 22.7 32.9 0.0
11/30/22 - 2300 23.0 74 15.9 21.0 N | 0 0.0 0.0 N | 0 22.7 32.9 0.0
11/30/22 - 2245 23.2 73 15.7 21.0 N | 0 0.0 0.0 N | 0 22.7 32.9 0.0
11/30/22 - 2230 23.2 72 15.6 21.0 N | 0 0.0 0.0 N | 0 22.7 32.9 0.0
11/30/22 - 2215 23.6 69 14.8 21.1 N | 0 0.0 0.0 N | 0 22.7 32.9 0.0
11/30/22 - 2200 23.8 68 14.7 21.2 N | 0 0.0 0.0 N | 0 22.7 32.9 0.0
11/30/22 - 2145 23.7 68 14.6 21.1 N | 0 0.0 0.0 N | 0 22.7 32.9 0.0
11/30/22 - 2130 23.4 70 14.9 21.0 N | 0 0.0 0.0 N | 0 22.7 32.9 0.0
11/30/22 - 2115 23.6 68 14.6 21.0 N | 0 0.0 0.0 N | 0 22.7 32.9 0.0
11/30/22 - 2100 23.2 71 15.1 20.8 N | 0 0.0 0.0 N | 0 22.7 32.9 0.0
11/30/22 - 2045 23.0 72 15.2 20.8 N | 0 0.0 0.0 N | 0 22.7 32.9 0.0
11/30/22 - 2030 22.9 74 15.7 20.8 N | 0 0.0 0.0 N | 0 22.7 32.9 0.0
11/30/22 - 2015 23.0 73 15.8 20.9 N | 0 0.0 0.0 N | 0 22.8 32.9 0.0
11/30/22 - 2000 23.2 71 15.3 20.9 N | 0 0.0 0.0 N | 0 22.9 32.9 0.0
11/30/22 - 1945 23.2 69 14.6 20.7 N | 0 0.0 0.0 N | 0 22.9 32.9 0.0
11/30/22 - 1930 23.2 68 14.1 20.6 N | 0 0.0 0.0 N | 0 23.0 32.9 0.0
11/30/22 - 1915 23.4 68 14.3 20.8 N | 0 0.0 0.0 N | 0 23.1 32.9 0.0
11/30/22 - 1900 23.5 67 14.2 20.8 N | 0 0.0 0.0 N | 0 23.3 32.9 0.0
11/30/22 - 1845 23.6 66 14.0 20.9 N | 0 0.0 0.0 N | 0 23.4 32.9 0.0
11/30/22 - 1830 23.7 67 14.2 21.0 N | 0 0.0 0.0 N | 0 23.5 32.9 0.0
11/30/22 - 1815 23.9 68 14.8 21.2 N | 0 0.0 0.0 N | 0 23.7 32.9 0.0
11/30/22 - 1800 24.5 66 14.8 21.7 N | 0 0.0 0.0 N | 0 24.1 32.9 0.0
11/30/22 - 1745 24.9 62 13.9 21.8 N | 0 0.0 0.0 N | 0 24.6 32.9 0.0
11/30/22 - 1730 25.4 58 12.6 21.8 N | 0 0.0 0.0 N | 0 25.2 32.9 0.0
11/30/22 - 1715 25.9 54 11.3 21.9 N | 0 0.0 0.0 N | 0 25.6 32.9 0.0
11/30/22 - 1700 26.2 52 10.8 22.0 N | 0 0.0 0.0 N | 0 25.9 32.9 0.0
11/30/22 - 1645 26.6 50 10.4 22.3 N | 0 0.0 0.0 N | 0 26.3 32.9 0.0
11/30/22 - 1630 27.3 46 9.4 22.5 N | 0 0.0 0.0 N | 0 26.5 32.9 0.0
11/30/22 - 1615 27.6 45 9.2 22.7 N | 0 0.0 0.0 N | 0 26.5 32.9 0.0
11/30/22 - 1600 28.0 45 9.3 23.0 N | 0 0.0 0.0 N | 0 26.5 32.9 0.0
11/30/22 - 1545 28.0 46 9.8 23.1 N | 0 0.0 0.0 N | 0 26.5 32.9 0.0
11/30/22 - 1530 28.1 47 10.4 23.2 N | 0 0.0 0.0 N | 0 26.5 32.9 0.0
11/30/22 - 1515 29.0 45 10.4 23.9 N | 0 0.0 0.0 N | 0 26.5 32.9 0.0
11/30/22 - 1500 29.3 44 10.1 24.0 N | 0 0.0 0.0 N | 0 26.5 32.9 0.0
11/30/22 - 1445 29.4 42 9.4 23.9 N | 0 0.0 0.0 N | 0 26.5 32.9 0.0
11/30/22 - 1430 29.6 42 9.1 24.0 N | 0 0.0 0.0 N | 0 26.5 32.9 0.0
11/30/22 - 1415 29.7 40 8.4 24.0 N | 0 0.0 0.0 N | 0 26.5 32.9 0.0
11/30/22 - 1400 30.0 37 7.2 24.0 N | 0 0.0 0.0 N | 0 26.5 32.9 0.0
11/30/22 - 1345 30.7 32 4.2 24.0 N | 0 0.0 0.0 N | 0 26.5 32.9 0.0
11/30/22 - 1330 31.3 29 3.1 24.2 N | 0 0.0 0.0 N | 0 26.5 32.9 0.0
11/30/22 - 1315 31.3 28 2.1 24.0 N | 0 0.0 0.0 N | 0 26.5 32.9 0.0
11/30/22 - 1300 31.7 27 1.3 24.2 N | 0 0.0 0.0 N | 0 26.5 32.9 0.0
11/30/22 - 1245 31.5 26 0.9 24.0 N | 0 0.0 0.0 N | 0 26.5 32.9 0.0
11/30/22 - 1230 31.9 24 -0.8 24.1 N | 0 0.0 0.0 N | 0 26.5 32.9 0.0
11/30/22 - 1215 32.1 22 -2.0 24.1 N | 0 0.0 0.0 N | 0 26.5 32.9 0.0
11/30/22 - 1200 32.3 22 -2.3 24.2 N | 0 0.0 0.0 N | 0 26.5 32.9 0.0
11/30/22 - 1145 32.0 22 -2.6 24.0 N | 0 0.0 0.0 N | 0 26.5 32.9 0.0
11/30/22 - 1130 32.1 21 -3.4 23.9 N | 0 0.0 0.0 N | 0 26.5 32.9 0.0
11/30/22 - 1115 32.0 20 -4.7 23.7 N | 0 0.0 0.0 N | 0 26.5 32.9 0.0
11/30/22 - 1100 32.1 19 -5.3 23.7 N | 0 0.0 0.0 N | 0 26.5 32.9 0.0
11/30/22 - 1045 32.5 19 -5.7 23.9 N | 0 0.0 0.0 N | 0 26.5 32.9 0.0
11/30/22 - 1030 32.2 18 -6.7 23.6 N | 0 0.0 0.0 N | 0 26.5 32.9 0.0
11/30/22 - 1015 32.6 16 -8.3 23.7 N | 0 0.0 0.0 N | 0 26.5 32.9 0.0
11/30/22 - 1000 32.2 14 -11.1 23.3 N | 0 0.0 0.0 N | 0 26.5 32.9 0.0
11/30/22 - 0945 31.5 20 -5.3 23.3 N | 0 0.0 0.0 N | 0 26.5 32.9 0.0
11/30/22 - 0930 30.1 23 -3.4 22.6 N | 0 0.0 0.0 N | 0 26.5 32.9 0.0
11/30/22 - 0915 29.2 22 -4.6 21.8 N | 0 0.0 0.0 N | 0 26.5 32.9 0.0
11/30/22 - 0900 29.0 22 -5.5 21.6 N | 0 0.0 0.0 N | 0 26.5 32.9 0.0
11/30/22 - 0845 29.1 21 -5.5 21.7 N | 0 0.0 0.0 N | 0 26.5 32.9 0.0
11/30/22 - 0830 29.3 21 -5.8 21.8 N | 0 0.0 0.0 N | 0 26.5 32.9 0.0
11/30/22 - 0815 28.4 24 -3.9 21.4 N | 0 0.0 0.0 N | 0 26.5 32.9 0.0
11/30/22 - 0800 28.4 26 -2.2 21.5 N | 0 0.0 0.0 N | 0 26.5 32.9 0.0
11/30/22 - 0745 28.3 27 -1.7 21.6 N | 0 0.0 0.0 N | 0 26.5 32.9 0.0
11/30/22 - 0730 28.0 27 -1.6 21.3 N | 0 0.0 0.0 N | 0 26.5 32.9 0.0
11/30/22 - 0715 27.0 30 -0.0 20.8 N | 0 0.0 0.0 N | 0 26.5 32.9 0.0
11/30/22 - 0700 26.9 31 0.1 20.8 N | 0 0.0 0.0 N | 0 26.5 32.9 0.0
11/30/22 - 0645 27.1 30 -0.3 20.9 N | 0 0.0 0.0 N | 0 26.5 32.9 0.0
11/30/22 - 0630 27.4 29 -0.8 21.0 N | 0 0.0 0.0 N | 0 27.1 32.9 0.0
11/30/22 - 0615 27.6 28 -1.6 21.1 N | 0 0.0 0.0 N | 0 27.4 32.9 0.0
11/30/22 - 0600 27.8 26 -2.4 21.1 N | 0 0.0 0.0 N | 0 27.4 32.9 0.0
11/30/22 - 0545 27.9 26 -2.4 21.2 N | 0 0.0 0.0 N | 0 27.4 32.9 0.0
11/30/22 - 0530 28.0 26 -2.7 21.2 N | 0 0.0 0.0 N | 0 27.4 32.9 0.0
11/30/22 - 0515 27.8 27 -2.2 21.1 N | 0 0.0 0.0 N | 0 27.4 32.9 0.0
11/30/22 - 0500 28.4 25 -3.0 21.4 N | 0 0.0 0.0 N | 0 27.8 32.9 0.0
11/30/22 - 0445 29.0 25 -2.2 21.9 N | 0 0.0 0.0 N | 0 28.6 32.9 0.0
11/30/22 - 0430 29.2 26 -1.8 22.1 N | 0 0.0 0.0 N | 0 28.6 32.9 0.0
11/30/22 - 0415 29.9 25 -1.3 22.7 N | 0 0.0 0.0 N | 0 28.6 32.9 0.0
11/30/22 - 0400 29.4 26 -1.6 22.3 N | 0 0.0 0.0 N | 0 28.6 32.9 0.0
11/30/22 - 0345 29.0 25 -2.6 21.9 N | 0 0.0 0.0 N | 0 28.6 32.9 0.0
11/30/22 - 0330 29.1 23 -3.7 21.9 N | 0 0.0 0.0 N | 0 28.6 32.9 0.0
11/30/22 - 0315 29.7 22 -4.7 22.1 N | 0 0.0 0.0 N | 0 29.3 32.9 0.0
11/30/22 - 0300 30.3 24 -2.4 22.8 N | 0 0.0 0.0 N | 0 29.9 32.9 0.0
11/30/22 - 0245 31.3 25 -0.2 23.8 N | 0 0.0 0.0 N | 0 30.6 32.9 0.0
11/30/22 - 0230 32.0 25 0.3 24.3 N | 0 0.0 0.0 N | 0 31.2 32.9 0.0
11/30/22 - 0215 31.9 25 0.3 24.2 N | 0 0.0 0.0 N | 0 31.2 32.9 0.0
11/30/22 - 0200 32.1 25 -0.0 24.3 N | 0 0.0 0.0 N | 0 31.6 32.9 0.0
11/30/22 - 0145 32.5 24 -0.2 24.5 N | 0 0.0 0.0 N | 0 31.8 32.9 0.0
11/30/22 - 0130 32.3 24 -0.2 24.4 N | 0 0.0 0.0 N | 0 31.8 32.7 0.0
11/30/22 - 0115 32.2 24 -0.1 24.4 N | 0 0.0 0.0 N | 0 31.8 32.7 0.0
11/30/22 - 0100 32.2 24 -0.4 24.3 N | 0 0.0 0.0 N | 0 31.8 32.7 0.0
11/30/22 - 0045 32.1 24 -0.5 24.2 N | 0 0.0 0.0 N | 0 31.8 32.7 0.0
11/30/22 - 0030 32.0 24 -0.8 24.1 N | 0 0.0 0.0 N | 0 31.8 32.7 0.0
11/30/22 - 0015 32.2 23 -1.3 24.2 N | 0 0.0 0.0 N | 0 32.0 32.7 0.0
11/30/22 - 0000 32.5 23 -1.2 24.4 N | 0 0.0 0.0 N | 0 22.1 37.6 0.0
11/29/22 - 2345 32.1 23 -1.3 24.2 N | 0 0.0 0.0 N | 0 22.1 37.6 0.0
11/29/22 - 2330 32.2 23 -1.1 24.2 N | 0 0.0 0.0 N | 0 22.1 37.6 0.0
11/29/22 - 2315 32.2 23 -1.2 24.2 N | 0 0.0 0.0 N | 0 22.1 37.6 0.0
11/29/22 - 2300 32.0 24 -1.0 24.1 N | 0 0.0 0.0 N | 0 22.1 37.6 0.0
11/29/22 - 2245 32.3 24 -0.9 24.3 N | 0 0.0 0.0 N | 0 22.1 37.6 0.0
11/29/22 - 2230 29.2 25 -1.9 22.1 N | 0 0.0 0.0 N | 0 22.1 37.6 0.0
11/29/22 - 2215 26.7 25 -4.2 20.2 N | 0 0.0 0.0 N | 0 22.1 37.6 0.0
Max 32.6 94 20.6 24.5 - 0.0 0.0 - 32.0 37.6 0.0
Avg 25.7 58 10.0 21.8 - 0.0 0.0 - - - -
Min 19.4 14 -11.1 18.6 - 0.0 0.0 - 18.8 25.7 0.0